Time;durP1;ratioP1;P1;durP2;ratioP2;P2;SDS_P1;SDS_P2;PMS_P1;PMS_P2;Temp;Humidity;BMP_temperature;BMP_pressure;BME280_temperature;BME280_humidity;BME280_pressure;Samples;Min_cycle;Max_cycle;Signal;HPM_P1;HPM_P2
2022/10/02 00:01:48;;;;;;;7.40;1.58;;;13.60;99.90;;;;;;6243951;22;20370;-83
2022/10/02 00:04:21;;;;;;;12.57;2.25;;;13.50;99.90;;;;;;6240375;23;20627;-83
2022/10/02 00:06:49;;;;;;;9.20;2.10;;;13.50;99.90;;;;;;6241344;22;20199;-83
2022/10/02 00:09:30;;;;;;;4.47;2.00;;;14.00;99.90;;;;;;6242357;22;20140;-83
2022/10/02 00:11:59;;;;;;;7.73;1.50;;;13.40;99.90;;;;;;6240959;23;20375;-84
2022/10/02 00:14:30;;;;;;;8.63;1.90;;;13.40;99.90;;;;;;6243287;22;20961;-83
2022/10/02 00:16:59;;;;;;;9.63;1.92;;;13.30;99.90;;;;;;6242128;23;20206;-84
2022/10/02 00:19:25;;;;;;;6.33;1.90;;;;;;;;;;6244354;22;20136;-86
2022/10/02 00:22:09;;;;;;;2.05;1.63;;;13.10;99.90;;;;;;6241536;23;20390;-86
2022/10/02 00:24:57;;;;;;;8.63;2.17;;;13.30;99.90;;;;;;6240067;22;20195;-87
2022/10/02 00:27:40;;;;;;;10.73;2.50;;;13.20;99.90;;;;;;6246347;23;20156;-85
2022/10/02 00:30:10;;;;;;;9.18;2.17;;;13.10;99.90;;;;;;6243200;23;20371;-84
2022/10/02 00:32:36;;;;;;;12.32;3.95;;;;;;;;;;6243887;23;20140;-86
2022/10/02 00:35:21;;;;;;;7.60;2.27;;;13.20;99.90;;;;;;6243872;23;20168;-84
2022/10/02 00:38:24;;;;;;;9.48;2.28;;;13.30;99.90;;;;;;6242490;23;20902;-85
2022/10/02 00:41:20;;;;;;;13.03;4.43;;;13.20;99.90;;;;;;6242336;23;20171;-84
2022/10/02 00:44:03;;;;;;;9.90;2.92;;;13.30;99.90;;;;;;6241879;22;20422;-84
2022/10/02 00:46:43;;;;;;;7.30;2.58;;;13.30;99.90;;;;;;6241065;22;20176;-84
2022/10/02 00:49:36;;;;;;;9.35;2.45;;;13.10;99.90;;;;;;6237630;23;20151;-84
2022/10/02 00:52:24;;;;;;;6.57;2.33;;;13.20;99.90;;;;;;6241767;23;20129;-84
2022/10/02 00:55:08;;;;;;;10.73;2.38;;;13.20;99.90;;;;;;6244629;23;20438;-84
2022/10/02 00:57:59;;;;;;;7.20;2.67;;;13.20;99.90;;;;;;6243366;23;20175;-86
2022/10/02 01:00:25;;;;;;;9.00;2.90;;;13.10;99.90;;;;;;6246380;23;20384;-84
2022/10/02 01:03:13;;;;;;;6.00;2.83;;;13.10;99.90;;;;;;6246394;22;20411;-84
2022/10/02 01:05:38;;;;;;;5.45;2.47;;;12.70;99.90;;;;;;6243862;23;20660;-84
2022/10/02 01:08:06;;;;;;;8.73;2.80;;;13.00;99.90;;;;;;6244375;22;20141;-84
2022/10/02 01:10:33;;;;;;;6.93;2.30;;;13.10;99.90;;;;;;6240372;23;20909;-84
2022/10/02 01:12:59;;;;;;;9.95;2.65;;;;;;;;;;6244486;22;20905;-84
2022/10/02 01:15:31;;;;;;;13.00;2.80;;;13.00;99.90;;;;;;6240973;23;20185;-85
2022/10/02 01:17:57;;;;;;;6.73;2.50;;;13.10;99.90;;;;;;6241792;23;20443;-85
2022/10/02 01:20:35;;;;;;;11.90;2.97;;;13.20;99.90;;;;;;6241946;23;20395;-86
2022/10/02 01:23:16;;;;;;;6.97;3.20;;;13.50;99.90;;;;;;6240282;23;20387;-86
2022/10/02 01:25:42;;;;;;;8.57;2.40;;;;;;;;;;6241291;22;20775;-86
2022/10/02 01:28:09;;;;;;;10.43;2.75;;;;;;;;;;6242711;23;20368;-86
2022/10/02 01:30:39;;;;;;;16.57;3.13;;;13.50;99.90;;;;;;6241897;22;20149;-86
2022/10/02 01:33:06;;;;;;;6.70;3.30;;;13.50;99.90;;;;;;6241441;22;20355;-86
2022/10/02 01:35:36;;;;;;;5.03;2.27;;;13.50;99.90;;;;;;6240966;22;20455;-84
2022/10/02 01:38:07;;;;;;;6.73;2.40;;;13.40;99.90;;;;;;6246917;22;20352;-85
2022/10/02 01:40:34;;;;;;;9.73;2.57;;;13.40;99.90;;;;;;6242866;23;20371;-85
2022/10/02 01:43:07;;;;;;;6.10;2.47;;;13.40;99.90;;;;;;6244821;23;20368;-84
2022/10/02 01:45:33;;;;;;;9.65;3.28;;;;;;;;;;6242579;23;20561;-86
2022/10/02 01:48:24;;;;;;;11.33;3.23;;;13.30;99.90;;;;;;6245645;23;20201;-85
2022/10/02 01:50:58;;;;;;;6.43;2.40;;;13.10;99.90;;;;;;6243477;23;20578;-85
2022/10/02 01:53:38;;;;;;;11.23;3.20;;;13.20;99.90;;;;;;6243526;23;20376;-86
2022/10/02 01:56:03;;;;;;;9.33;3.10;;;13.20;99.90;;;;;;6243703;22;20399;-85
2022/10/02 01:58:29;;;;;;;12.20;3.73;;;;;;;;;;6242718;22;21266;-85
2022/10/02 02:01:10;;;;;;;9.30;2.60;;;13.00;99.90;;;;;;6242127;23;20186;-84
2022/10/02 02:04:14;;;;;;;7.30;2.47;;;12.70;99.90;;;;;;6241231;23;20382;-84
2022/10/02 02:06:49;;;;;;;10.43;2.67;;;13.10;99.90;;;;;;6153380;23;20188;-84
2022/10/02 02:09:22;;;;;;;10.15;3.85;;;13.00;99.90;;;;;;6235517;23;20399;-84
2022/10/02 02:12:13;;;;;;;15.63;3.05;;;12.90;99.90;;;;;;6244146;23;20183;-84
2022/10/02 02:14:46;;;;;;;10.15;2.88;;;13.00;99.90;;;;;;6243669;23;20172;-86
2022/10/02 02:17:20;;;;;;;13.02;3.05;;;13.10;99.90;;;;;;6242782;23;20235;-85
2022/10/02 02:20:00;;;;;;;12.70;2.88;;;13.20;99.90;;;;;;6237602;23;20247;-85
2022/10/02 02:22:35;;;;;;;11.87;3.13;;;13.10;99.90;;;;;;6238455;23;20523;-84
2022/10/02 02:25:07;;;;;;;7.43;2.70;;;13.10;99.90;;;;;;6241845;23;20410;-85
2022/10/02 02:27:40;;;;;;;18.10;3.10;;;13.20;99.90;;;;;;6239237;23;20191;-84
2022/10/02 02:30:11;;;;;;;14.32;2.75;;;13.20;99.90;;;;;;6237309;23;20711;-84
2022/10/02 02:33:00;;;;;;;7.55;2.10;;;13.20;99.90;;;;;;6233327;23;20159;-85
2022/10/02 02:35:36;;;;;;;11.27;2.35;;;13.20;99.90;;;;;;6237207;23;20176;-85
2022/10/02 02:38:10;;;;;;;11.70;2.25;;;13.20;99.90;;;;;;6237970;22;20630;-84
2022/10/02 02:40:40;;;;;;;9.35;2.30;;;13.20;99.90;;;;;;6238487;22;20247;-85
2022/10/02 02:43:28;;;;;;;12.57;3.65;;;13.50;99.90;;;;;;6241481;22;20136;-85
2022/10/02 02:46:08;;;;;;;9.52;3.58;;;12.90;99.90;;;;;;6239802;23;20183;-85
2022/10/02 02:48:50;;;;;;;13.13;2.60;;;13.20;99.90;;;;;;6238327;23;20173;-84
2022/10/02 02:51:20;;;;;;;10.93;2.60;;;13.20;99.90;;;;;;6239495;22;20164;-84
2022/10/02 02:53:52;;;;;;;11.18;2.40;;;13.20;99.90;;;;;;6237256;22;20149;-84
2022/10/02 02:56:19;;;;;;;9.65;3.00;;;13.20;99.90;;;;;;6236430;23;20164;-86
2022/10/02 02:58:45;;;;;;;14.25;3.15;;;;;;;;;;6234924;23;20233;-86
2022/10/02 03:01:11;;;;;;;7.70;2.67;;;;;;;;;;6239591;23;20624;-86
2022/10/02 03:03:37;;;;;;;6.87;2.57;;;;;;;;;;6241452;23;20371;-84
2022/10/02 03:06:36;;;;;;;7.57;2.60;;;13.30;99.90;;;;;;6242845;23;20418;-84
2022/10/02 03:09:05;;;;;;;16.97;2.40;;;13.20;99.90;;;;;;6237993;23;20394;-85
2022/10/02 03:11:31;;;;;;;11.43;2.87;;;;;;;;;;6242965;23;20488;-84
2022/10/02 03:14:12;;;;;;;7.67;2.57;;;13.50;99.90;;;;;;6244237;23;20826;-86
2022/10/02 03:17:02;;;;;;;7.82;2.35;;;13.40;99.90;;;;;;6245382;23;20371;-85
2022/10/02 03:19:50;;;;;;;12.75;2.75;;;13.50;99.90;;;;;;6239319;23;20639;-86
2022/10/02 03:22:16;;;;;;;9.33;3.90;;;;;;;;;;6240841;23;20206;-85
2022/10/02 03:25:10;;;;;;;8.40;3.10;;;13.30;99.90;;;;;;6244677;22;20491;-85
2022/10/02 03:27:50;;;;;;;11.73;2.80;;;13.40;99.90;;;;;;6245050;23;20449;-84
2022/10/02 03:30:20;;;;;;;9.70;2.53;;;13.30;99.90;;;;;;6242699;23;20160;-85
2022/10/02 03:32:52;;;;;;;7.70;2.63;;;13.30;99.90;;;;;;6240073;23;21217;-85
2022/10/02 03:35:18;;;;;;;13.18;3.60;;;;;;;;;;6241057;23;20422;-84
2022/10/02 03:37:48;;;;;;;10.13;2.83;;;13.30;99.90;;;;;;6240482;23;20179;-84
2022/10/02 03:40:14;;;;;;;12.47;2.63;;;;;;;;;;6243278;22;20208;-85
2022/10/02 03:42:41;;;;;;;6.60;1.80;;;13.30;99.90;;;;;;6241284;23;21108;-85
2022/10/02 03:45:07;;;;;;;14.73;4.20;;;13.10;99.90;;;;;;6241648;23;20410;-85
2022/10/02 03:47:33;;;;;;;14.20;2.20;;;;;;;;;;6243357;23;20387;-84
2022/10/02 03:49:59;;;;;;;10.70;2.23;;;;;;;;;;6240420;23;20214;-85
2022/10/02 03:52:25;;;;;;;17.20;3.40;;;13.50;99.90;;;;;;6240165;23;20363;-84
2022/10/02 03:54:55;;;;;;;7.33;2.27;;;13.40;99.90;;;;;;6241579;23;20179;-83
2022/10/02 03:57:25;;;;;;;10.40;2.70;;;13.30;99.90;;;;;;6242997;22;20274;-83
2022/10/02 04:00:06;;;;;;;14.05;3.47;;;13.10;99.90;;;;;;6240402;23;20411;-83
2022/10/02 04:02:57;;;;;;;10.30;2.80;;;14.60;99.90;;;;;;6241132;22;20132;-85
2022/10/02 04:05:33;;;;;;;10.95;2.72;;;13.20;99.90;;;;;;6246433;22;20419;-84
2022/10/02 04:08:19;;;;;;;22.85;3.60;;;13.20;99.90;;;;;;6241556;23;20163;-85
2022/10/02 04:11:12;;;;;;;12.30;2.73;;;13.10;99.90;;;;;;6244533;23;20211;-85
2022/10/02 04:14:02;;;;;;;14.10;2.00;;;12.90;99.90;;;;;;6245088;22;20362;-84
2022/10/02 04:16:30;;;;;;;11.38;2.80;;;13.00;99.90;;;;;;6246870;23;20379;-84
2022/10/02 04:19:20;;;;;;;9.32;3.00;;;13.30;99.90;;;;;;6248313;22;20149;-84
2022/10/02 04:22:08;;;;;;;7.82;2.10;;;13.10;99.90;;;;;;6249303;22;20144;-83
2022/10/02 04:25:04;;;;;;;8.63;2.60;;;13.10;99.90;;;;;;6249833;23;20186;-83
2022/10/02 04:27:30;;;;;;;11.82;2.60;;;;;;;;;;6250000;22;20216;-84
2022/10/02 04:30:01;;;;;;;9.27;3.73;;;13.10;99.90;;;;;;6243409;23;20152;-84
2022/10/02 04:32:31;;;;;;;15.30;2.83;;;12.00;99.90;;;;;;6242756;23;20435;-84
2022/10/02 04:34:57;;;;;;;13.45;3.25;;;13.10;99.90;;;;;;6241530;23;20259;-84
2022/10/02 04:37:46;;;;;;;15.13;2.78;;;12.90;99.90;;;;;;6242692;23;20210;-84
2022/10/02 04:40:12;;;;;;;4.82;2.38;;;;;;;;;;6243510;23;20145;-84
2022/10/02 04:42:38;;;;;;;8.73;2.93;;;;;;;;;;6241292;23;20952;-85
2022/10/02 04:45:28;;;;;;;11.73;2.93;;;13.10;99.90;;;;;;6244838;23;20383;-85
2022/10/02 04:48:44;;;;;;;17.67;2.30;;;13.10;99.90;;;;;;6243421;23;20379;-85
2022/10/02 04:51:25;;;;;;;7.22;2.33;;;;;;;;;;6179845;23;20381;-85
2022/10/02 04:54:12;;;;;;;6.80;2.60;;;13.00;99.90;;;;;;6238444;23;20223;-85
2022/10/02 04:57:08;;;;;;;7.70;2.53;;;12.90;99.90;;;;;;6247160;22;20132;-85
2022/10/02 04:59:46;;;;;;;6.47;2.65;;;;;;;;;;6243233;23;20171;-86
2022/10/02 05:02:12;;;;;;;8.65;2.70;;;;;;;;;;6242484;23;20148;-84
2022/10/02 05:04:45;;;;;;;10.00;1.97;;;12.80;99.90;;;;;;6234214;23;20180;-85
2022/10/02 05:07:32;;;;;;;11.52;2.60;;;12.80;99.90;;;;;;6243516;23;20419;-85
2022/10/02 05:10:06;;;;;;;8.95;2.63;;;12.80;99.90;;;;;;6240833;22;20167;-85
2022/10/02 05:13:07;;;;;;;10.02;2.17;;;12.70;99.90;;;;;;6245104;23;20187;-83
2022/10/02 05:15:52;;;;;;;12.32;3.17;;;12.50;99.90;;;;;;6243903;23;20168;-83
2022/10/02 05:18:39;;;;;;;8.77;2.22;;;12.70;99.90;;;;;;6242699;23;20141;-86
2022/10/02 05:21:58;;;;;;;5.35;2.08;;;12.60;99.90;;;;;;6244758;23;20902;-84
2022/10/02 05:24:54;;;;;;;7.05;1.92;;;12.80;99.90;;;;;;6239681;23;20906;-81
2022/10/02 05:27:44;;;;;;;6.75;1.58;;;12.50;99.90;;;;;;6243599;22;20161;-85
2022/10/02 05:30:15;;;;;;;12.60;2.90;;;12.80;99.90;;;;;;6241651;23;20510;-85
2022/10/02 05:33:16;;;;;;;10.32;1.67;;;12.20;99.90;;;;;;6243639;22;20141;-85
2022/10/02 05:36:08;;;;;;;3.15;1.70;;;12.50;99.90;;;;;;6244626;22;20192;-86
2022/10/02 05:39:08;;;;;;;6.13;1.55;;;12.50;99.90;;;;;;6233866;22;20139;-85
2022/10/02 05:41:46;;;;;;;7.63;1.65;;;12.00;99.90;;;;;;6221537;23;20156;-85
2022/10/02 05:44:17;;;;;;;3.35;1.63;;;12.70;99.90;;;;;;6239654;23;21083;-85
2022/10/02 05:47:00;;;;;;;5.32;1.27;;;12.60;99.90;;;;;;6240046;23;20231;-85
2022/10/02 05:49:52;;;;;;;4.95;1.50;;;12.50;99.90;;;;;;6242484;22;20186;-85
2022/10/02 05:52:34;;;;;;;8.70;1.45;;;;;;;;;;6224042;23;20156;-86
2022/10/02 05:55:06;;;;;;;8.93;1.83;;;12.50;99.90;;;;;;6241431;23;20873;-86
2022/10/02 05:57:39;;;;;;;10.95;1.55;;;12.60;99.90;;;;;;6245508;23;20144;-86
2022/10/02 06:00:05;;;;;;;6.32;1.50;;;12.40;99.90;;;;;;6244575;23;20208;-86
2022/10/02 06:02:59;;;;;;;4.10;1.90;;;12.60;99.90;;;;;;6241442;23;20531;-86
2022/10/02 06:05:54;;;;;;;6.25;1.73;;;12.40;99.90;;;;;;6242072;23;20183;-86
2022/10/02 06:08:28;;;;;;;6.57;1.65;;;12.70;99.90;;;;;;6238541;23;20148;-84
2022/10/02 06:10:59;;;;;;;6.55;1.35;;;12.50;99.90;;;;;;6240870;23;20151;-84
2022/10/02 06:13:42;;;;;;;6.00;1.90;;;12.50;99.90;;;;;;6239679;23;20192;-85
2022/10/02 06:16:39;;;;;;;7.70;1.90;;;12.20;99.90;;;;;;6242599;22;20168;-85
2022/10/02 06:19:18;;;;;;;8.27;1.38;;;12.40;99.90;;;;;;6230375;23;20156;-85
2022/10/02 06:21:52;;;;;;;4.95;1.23;;;12.50;99.90;;;;;;6242719;22;20143;-84
2022/10/02 06:24:24;;;;;;;2.83;1.30;;;12.50;99.90;;;;;;6238832;23;20175;-86
2022/10/02 06:27:26;;;;;;;5.10;1.40;;;12.50;99.90;;;;;;6237395;23;20175;-83
2022/10/02 06:30:15;;;;;;;2.40;1.13;;;12.60;99.90;;;;;;6236047;22;20186;-85
2022/10/02 06:33:23;;;;;;;7.70;1.10;;;12.60;99.90;;;;;;6238758;22;20149;-85
2022/10/02 06:35:57;;;;;;;4.30;1.52;;;12.60;99.90;;;;;;6174605;23;20177;-83
2022/10/02 06:38:53;;;;;;;3.38;1.50;;;12.60;99.90;;;;;;6176260;23;20463;-83
2022/10/02 06:41:36;;;;;;;6.00;1.17;;;12.90;99.90;;;;;;6241650;22;20183;-83
2022/10/02 06:44:20;;;;;;;1.73;1.13;;;12.60;99.90;;;;;;6237993;23;20176;-83
2022/10/02 06:46:51;;;;;;;8.80;1.08;;;12.60;99.90;;;;;;6237662;23;20175;-83
2022/10/02 06:49:39;;;;;;;2.30;1.10;;;12.60;99.90;;;;;;6234017;23;20523;-84
2022/10/02 06:52:23;;;;;;;5.28;1.67;;;12.70;99.90;;;;;;6239283;22;20132;-83
2022/10/02 06:55:00;;;;;;;3.65;1.38;;;12.70;99.90;;;;;;6239468;23;20237;-83
2022/10/02 06:57:58;;;;;;;4.30;1.30;;;12.40;99.90;;;;;;6239567;23;20153;-83
2022/10/02 07:00:24;;;;;;;5.32;1.70;;;13.00;99.90;;;;;;6240928;23;20171;-84
2022/10/02 07:03:02;;;;;;;2.88;1.42;;;12.40;99.90;;;;;;6244351;23;20145;-83
2022/10/02 07:05:34;;;;;;;4.30;2.08;;;12.80;99.90;;;;;;6245629;22;20226;-84
2022/10/02 07:08:45;;;;;;;5.57;1.80;;;12.50;99.90;;;;;;6243928;23;20157;-85
2022/10/02 07:11:28;;;;;;;2.20;1.20;;;12.80;99.90;;;;;;6244054;23;20141;-83
2022/10/02 07:13:54;;;;;;;2.83;1.10;;;;;;;;;;6249412;22;20182;-86
2022/10/02 07:17:15;;;;;;;3.33;1.20;;;12.80;99.90;;;;;;6247450;23;20203;-84
2022/10/02 07:19:59;;;;;;;4.72;2.92;;;12.80;99.90;;;;;;6213243;22;20383;-86
2022/10/02 07:22:37;;;;;;;2.67;1.35;;;13.20;99.90;;;;;;6247252;23;20137;-86
2022/10/02 07:25:04;;;;;;;6.20;3.35;;;;;;;;;;6244090;23;20255;-86
2022/10/02 07:27:47;;;;;;;6.07;3.30;;;13.40;99.90;;;;;;6244333;23;20213;-85
2022/10/02 07:30:16;;;;;;;3.23;1.53;;;13.30;99.90;;;;;;6241808;22;20128;-84
2022/10/02 07:32:47;;;;;;;2.85;1.50;;;13.20;99.90;;;;;;6241546;23;20387;-84
2022/10/02 07:35:13;;;;;;;2.80;2.33;;;;;;;;;;6241641;23;20259;-83
2022/10/02 07:37:47;;;;;;;4.80;1.50;;;13.30;99.90;;;;;;6242335;22;21241;-83
2022/10/02 07:40:27;;;;;;;1.97;1.23;;;13.30;99.90;;;;;;6244003;23;20367;-84
2022/10/02 07:43:15;;;;;;;2.53;1.07;;;13.10;99.90;;;;;;6241272;23;20447;-83
2022/10/02 07:46:04;;;;;;;0.68;0.60;;;13.50;99.90;;;;;;6245522;22;20434;-84
2022/10/02 07:48:48;;;;;;;2.67;1.80;;;13.10;99.90;;;;;;6245030;22;20222;-84
2022/10/02 07:51:56;;;;;;;2.55;0.95;;;13.40;99.90;;;;;;6246859;22;20140;-83
2022/10/02 07:55:00;;;;;;;4.63;1.40;;;13.60;99.90;;;;;;6244773;23;20172;-83
2022/10/02 07:58:01;;;;;;;2.00;1.13;;;13.50;99.90;;;;;;6233976;23;20148;-83
2022/10/02 08:00:30;;;;;;;2.00;0.90;;;12.40;99.90;;;;;;6247338;23;20414;-83
2022/10/02 08:03:07;;;;;;;1.25;0.90;;;13.50;99.90;;;;;;6247668;22;20371;-83
2022/10/02 08:05:40;;;;;;;6.20;2.78;;;13.70;99.90;;;;;;6249256;22;20176;-84
2022/10/02 08:08:37;;;;;;;2.50;1.47;;;13.60;99.90;;;;;;6248241;22;20195;-83
2022/10/02 08:11:12;;;;;;;7.53;6.50;;;13.70;99.90;;;;;;6249361;22;20344;-83
2022/10/02 08:13:45;;;;;;;4.43;3.70;;;13.60;99.90;;;;;;6246350;23;20158;-83
2022/10/02 08:16:13;;;;;;;4.55;0.90;;;13.50;99.90;;;;;;6249044;22;20388;-83
2022/10/02 08:18:47;;;;;;;9.17;4.87;;;13.50;99.90;;;;;;6247656;22;20156;-82
2022/10/02 08:21:17;;;;;;;10.45;8.50;;;14.20;99.90;;;;;;6248405;22;20362;-81
2022/10/02 08:23:55;;;;;;;3.50;0.93;;;13.30;99.90;;;;;;6247950;22;20145;-81
2022/10/02 08:26:37;;;;;;;3.22;0.70;;;13.10;99.90;;;;;;6247599;23;20168;-83
2022/10/02 08:29:22;;;;;;;2.30;1.50;;;13.00;99.90;;;;;;6249511;22;20143;-81
2022/10/02 08:31:51;;;;;;;0.60;0.60;;;13.20;99.90;;;;;;6247555;23;20449;-81
2022/10/02 08:34:22;;;;;;;3.63;1.70;;;13.20;99.90;;;;;;6248854;22;20224;-82
2022/10/02 08:37:12;;;;;;;1.98;1.77;;;13.10;99.90;;;;;;6248732;22;20236;-80
2022/10/02 08:39:50;;;;;;;0.70;0.63;;;13.10;99.90;;;;;;6247828;22;20211;-83
2022/10/02 08:42:55;;;;;;;0.82;0.73;;;13.00;99.90;;;;;;6245953;23;20442;-84
2022/10/02 08:45:35;;;;;;;3.38;0.80;;;12.90;99.90;;;;;;6244316;22;20234;-81
2022/10/02 08:48:01;;;;;;;1.83;1.10;;;;;;;;;;6242318;23;20132;-81
2022/10/02 08:50:44;;;;;;;2.10;0.90;;;12.80;99.90;;;;;;6244280;23;20398;-80
2022/10/02 08:53:34;;;;;;;3.63;1.00;;;12.90;99.90;;;;;;6243068;22;20439;-84
2022/10/02 08:56:02;;;;;;;2.03;1.25;;;;;;;;;;6248341;23;20391;-82
2022/10/02 08:58:34;;;;;;;2.67;1.17;;;;;;;;;;6251576;22;20159;-83
2022/10/02 09:01:37;;;;;;;3.20;1.40;;;13.10;99.90;;;;;;6252843;23;20129;-82
2022/10/02 09:04:11;;;;;;;7.25;1.83;;;13.00;99.90;;;;;;6251514;22;20379;-85
2022/10/02 09:07:22;;;;;;;7.03;1.55;;;13.10;99.90;;;;;;6249845;23;20223;-85
2022/10/02 09:10:25;;;;;;;1.77;0.90;;;13.10;99.90;;;;;;6246124;23;20655;-84
2022/10/02 09:13:24;;;;;;;1.77;1.50;;;13.30;99.90;;;;;;6248290;23;20151;-84
2022/10/02 09:16:20;;;;;;;3.20;1.30;;;13.60;99.90;;;;;;6250279;22;20635;-84
2022/10/02 09:19:08;;;;;;;1.92;1.50;;;13.50;99.90;;;;;;6247451;23;20171;-85
2022/10/02 09:21:48;;;;;;;1.65;1.05;;;13.20;99.90;;;;;;6251883;22;20556;-85
2022/10/02 09:24:23;;;;;;;1.27;0.80;;;13.00;99.90;;;;;;6252923;23;20209;-83
2022/10/02 09:27:45;;;;;;;3.50;1.00;;;13.10;99.90;;;;;;6254545;23;20395;-82
2022/10/02 09:30:11;;;;;;;1.13;1.07;;;;;;;;;;6189578;23;20153;-82
2022/10/02 09:33:14;;;;;;;2.03;1.00;;;13.20;99.90;;;;;;6186570;23;20362;-82
2022/10/02 09:35:40;;;;;;;2.08;0.95;;;13.40;99.90;;;;;;6242435;23;20949;-82
2022/10/02 09:38:28;;;;;;;1.00;0.90;;;13.70;99.90;;;;;;6248018;23;20196;-84
2022/10/02 09:41:13;;;;;;;1.23;1.00;;;13.90;99.90;;;;;;6251856;22;20460;-85
2022/10/02 09:43:39;;;;;;;0.70;0.60;;;;;;;;;;6249728;23;20348;-84
2022/10/02 09:46:26;;;;;;;1.80;0.97;;;13.60;99.90;;;;;;6246082;23;20430;-84
2022/10/02 09:49:16;;;;;;;1.05;1.00;;;13.50;99.90;;;;;;6246553;23;20826;-84
2022/10/02 09:52:15;;;;;;;0.70;0.40;;;13.30;99.90;;;;;;6246878;23;20518;-82
2022/10/02 09:55:04;;;;;;;1.70;0.50;;;13.50;99.90;;;;;;6246533;23;20398;-82
2022/10/02 09:57:57;;;;;;;0.40;0.40;;;13.70;99.90;;;;;;6247090;22;20414;-83
2022/10/02 10:01:05;;;;;;;0.67;0.67;;;13.60;99.90;;;;;;6246416;23;20442;-85
2022/10/02 10:03:53;;;;;;;0.50;0.50;;;13.60;99.90;;;;;;6245783;22;20459;-84
2022/10/02 10:06:42;;;;;;;0.40;0.33;;;13.50;99.90;;;;;;6248466;22;20528;-85
2022/10/02 10:09:35;;;;;;;0.50;0.40;;;13.20;99.90;;;;;;6248158;23;20348;-84
2022/10/02 10:12:15;;;;;;;0.63;0.30;;;13.20;99.90;;;;;;6245923;22;20352;-82
2022/10/02 10:15:18;;;;;;;0.40;0.37;;;13.70;99.90;;;;;;6250571;23;20175;-84
2022/10/02 10:18:25;;;;;;;0.80;0.50;;;13.50;99.90;;;;;;6248297;22;20393;-85
2022/10/02 10:21:36;;;;;;;0.93;0.75;;;13.20;99.90;;;;;;6247587;23;20379;-83
2022/10/02 10:24:02;;;;;;;0.90;0.70;;;;;;;;;;6245846;22;20132;-84
2022/10/02 10:26:33;;;;;;;1.00;0.70;;;13.10;99.90;;;;;;6240185;23;20468;-84
2022/10/02 10:29:18;;;;;;;1.90;0.80;;;13.20;99.90;;;;;;6240908;22;20799;-83
2022/10/02 10:32:22;;;;;;;0.47;0.47;;;13.20;99.90;;;;;;6233029;22;20363;-82
2022/10/02 10:35:23;;;;;;;1.10;0.45;;;13.20;99.90;;;;;;6182944;23;20492;-83
2022/10/02 10:41:02;;;;;;;0.90;0.50;;;13.30;99.90;;;;;;6240091;23;20677;-83
2022/10/02 10:44:01;;;;;;;0.47;0.47;;;13.20;99.90;;;;;;6238371;23;20574;-83
2022/10/02 10:47:01;;;;;;;0.60;0.60;;;13.30;99.90;;;;;;6237148;23;20445;-83
2022/10/02 10:49:53;;;;;;;2.20;1.10;;;13.10;99.90;;;;;;6239097;23;20145;-83
2022/10/02 10:52:46;;;;;;;1.70;0.82;;;12.90;99.90;;;;;;6240537;23;20371;-83
2022/10/02 10:55:37;;;;;;;1.43;0.80;;;13.10;99.90;;;;;;6242180;23;20178;-82
2022/10/02 10:58:20;;;;;;;0.60;0.50;;;13.30;99.90;;;;;;6243860;23;20443;-84
2022/10/02 11:01:17;;;;;;;0.97;0.87;;;13.20;99.90;;;;;;6239432;23;20658;-83
2022/10/02 11:03:43;;;;;;;0.65;0.50;;;;;;;;;;6160119;23;20374;-83
2022/10/02 11:06:49;;;;;;;3.20;0.70;;;13.20;99.90;;;;;;6244817;23;20760;-82
2022/10/02 11:09:40;;;;;;;0.80;0.68;;;13.10;99.90;;;;;;6243542;23;20375;-83
2022/10/02 11:12:06;;;;;;;0.57;0.50;;;;;;;;;;6243091;23;20148;-83
2022/10/02 11:14:46;;;;;;;0.40;0.37;;;13.00;99.90;;;;;;6248585;23;20836;-84
2022/10/02 11:17:43;;;;;;;0.85;0.85;;;13.10;99.90;;;;;;6242782;23;20444;-84
2022/10/02 11:20:53;;;;;;;0.50;0.50;;;13.50;99.90;;;;;;6244709;22;20143;-84
2022/10/02 11:23:44;;;;;;;0.50;0.50;;;13.20;99.90;;;;;;6243405;23;20441;-83
2022/10/02 11:26:21;;;;;;;0.77;0.60;;;13.50;99.90;;;;;;6244298;23;20737;-83
2022/10/02 11:29:20;;;;;;;0.97;0.40;;;13.50;99.90;;;;;;6239973;23;20151;-83
2022/10/02 11:31:56;;;;;;;0.50;0.50;;;13.30;99.90;;;;;;6245491;23;20694;-83
2022/10/02 11:34:56;;;;;;;0.50;0.50;;;13.60;99.90;;;;;;6246834;22;20367;-83
2022/10/02 11:37:40;;;;;;;1.00;0.50;;;13.60;99.90;;;;;;6211434;23;20459;-84
2022/10/02 11:40:37;;;;;;;0.60;0.50;;;13.70;99.90;;;;;;6237520;23;20360;-84
2022/10/02 11:43:24;;;;;;;0.67;0.47;;;13.60;99.90;;;;;;6247582;23;20367;-84
2022/10/02 11:45:53;;;;;;;1.80;0.50;;;;;;;;;;6248475;23;20812;-84
2022/10/02 11:48:25;;;;;;;0.40;0.37;;;14.20;99.90;;;;;;6244831;22;20417;-85
2022/10/02 11:51:10;;;;;;;0.97;0.40;;;13.70;99.90;;;;;;6250105;23;20378;-84
2022/10/02 11:53:46;;;;;;;0.50;0.30;;;14.40;99.90;;;;;;6246435;23;20441;-83
2022/10/02 11:56:21;;;;;;;0.40;0.40;;;14.70;99.90;;;;;;6243328;23;21302;-86
2022/10/02 11:59:12;;;;;;;0.57;0.47;;;14.60;99.90;;;;;;6244216;23;20375;-85
2022/10/02 12:02:03;;;;;;;0.40;0.40;;;14.70;99.90;;;;;;6245538;23;20391;-85
2022/10/02 12:05:14;;;;;;;0.70;0.50;;;14.60;99.90;;;;;;6244217;22;20470;-85
2022/10/02 12:08:03;;;;;;;0.53;0.50;;;14.70;99.90;;;;;;6241796;23;20415;-85
2022/10/02 12:10:51;;;;;;;0.60;0.40;;;14.70;99.90;;;;;;6245156;23;20368;-85
2022/10/02 12:14:01;;;;;;;0.40;0.40;;;14.40;99.90;;;;;;6242488;22;20387;-85
2022/10/02 12:16:38;;;;;;;0.50;0.43;;;14.30;99.90;;;;;;6154741;23;20381;-84
2022/10/02 12:19:25;;;;;;;0.40;0.40;;;13.90;99.90;;;;;;6254264;22;20382;-84
2022/10/02 12:28:54;;;;;;;2.30;0.40;;;13.90;99.90;;;;;;6237858;23;20406;-83
2022/10/02 12:31:49;;;;;;;0.77;0.43;;;14.00;99.90;;;;;;6243350;23;20924;-84
2022/10/02 12:34:40;;;;;;;0.90;0.43;;;13.80;99.90;;;;;;6237087;23;20445;-83
2022/10/02 12:37:30;;;;;;;0.50;0.40;;;13.70;99.90;;;;;;6242501;23;20360;-84
2022/10/02 12:40:24;;;;;;;0.40;0.30;;;13.70;99.90;;;;;;6242639;23;20372;-83
2022/10/02 12:42:50;;;;;;;1.03;0.40;;;;;;;;;;6238103;22;20390;-83
2022/10/02 12:45:42;;;;;;;0.50;0.30;;;13.50;99.90;;;;;;6238296;23;20882;-84
2022/10/02 12:48:39;;;;;;;0.90;0.60;;;13.50;99.90;;;;;;6236617;23;20902;-83
2022/10/02 12:51:26;;;;;;;0.60;0.40;;;13.40;99.90;;;;;;6237430;23;20363;-83
2022/10/02 12:54:16;;;;;;;0.80;0.40;;;13.50;99.90;;;;;;6233198;23;20425;-83
2022/10/02 12:56:45;;;;;;;0.50;0.40;;;13.30;99.90;;;;;;6237644;23;20846;-83
2022/10/02 12:59:26;;;;;;;1.20;0.60;;;13.40;99.90;;;;;;6238473;23;20482;-84
2022/10/02 13:02:12;;;;;;;1.03;0.57;;;13.50;99.90;;;;;;6237499;23;20381;-83
2022/10/02 13:05:01;;;;;;;0.80;0.77;;;13.60;99.90;;;;;;6238410;23;20415;-83
2022/10/02 13:07:29;;;;;;;0.80;0.70;;;;;;;;;;6234203;22;20457;-83
2022/10/02 13:10:22;;;;;;;0.70;0.60;;;13.60;99.90;;;;;;6237561;22;21147;-82
2022/10/02 13:13:25;;;;;;;1.50;0.60;;;13.40;99.90;;;;;;6236390;23;20360;-82
2022/10/02 13:16:20;;;;;;;0.70;0.50;;;13.60;99.90;;;;;;6236483;22;20885;-83
2022/10/02 13:19:04;;;;;;;0.90;0.60;;;13.80;99.90;;;;;;6234017;23;20378;-82
2022/10/02 13:21:42;;;;;;;0.70;0.50;;;13.60;99.90;;;;;;6239193;23;20375;-83
2022/10/02 13:24:08;;;;;;;3.37;0.97;;;;;;;;;;6233569;23;20467;-82
2022/10/02 13:26:50;;;;;;;0.60;0.50;;;14.00;99.90;;;;;;6236500;23;20439;-84
2022/10/02 13:30:09;;;;;;;0.60;0.50;;;14.00;99.90;;;;;;6240778;22;20364;-83
2022/10/02 13:32:35;;;;;;;0.73;0.73;;;;;;;;;;6175925;23;20433;-83
2022/10/02 13:35:23;;;;;;;2.20;0.77;;;14.10;99.90;;;;;;6235509;23;20396;-83
2022/10/02 13:38:08;;;;;;;0.53;0.53;;;14.30;99.90;;;;;;6240040;22;20755;-83
2022/10/02 13:40:34;;;;;;;0.57;0.53;;;;;;;;;;6240111;23;20352;-84
2022/10/02 13:43:16;;;;;;;0.80;0.40;;;14.20;99.90;;;;;;6239170;23;20345;-83
2022/10/02 13:46:06;;;;;;;0.67;0.67;;;14.50;99.90;;;;;;6238660;23;20422;-84
2022/10/02 13:48:57;;;;;;;1.67;1.13;;;14.00;99.90;;;;;;6237331;23;20830;-83
2022/10/02 13:51:48;;;;;;;1.10;0.80;;;13.90;99.90;;;;;;6239432;23;20411;-83
2022/10/02 13:54:13;;;;;;;3.97;0.97;;;;;;;;;;6237210;22;20344;-83
2022/10/02 13:57:01;;;;;;;3.40;0.83;;;13.80;99.90;;;;;;6239056;23;20387;-83
2022/10/02 13:59:45;;;;;;;6.20;0.80;;;13.90;99.90;;;;;;6237316;23;20481;-84
2022/10/02 14:02:44;;;;;;;1.03;0.93;;;13.80;99.90;;;;;;6244033;22;20359;-87
2022/10/02 14:05:40;;;;;;;3.13;1.13;;;13.60;99.90;;;;;;6238991;23;20407;-83
2022/10/02 14:08:16;;;;;;;1.03;0.90;;;;;;;;;;6245058;22;20701;-85
2022/10/02 14:11:00;;;;;;;0.83;0.83;;;13.60;99.90;;;;;;6238517;23;20438;-84
2022/10/02 14:13:37;;;;;;;1.70;0.90;;;13.60;99.90;;;;;;6244202;23;20435;-84
2022/10/02 14:16:25;;;;;;;1.53;0.97;;;13.60;99.90;;;;;;6232929;23;20412;-84
2022/10/02 14:19:04;;;;;;;2.00;1.00;;;13.50;99.90;;;;;;6233753;23;20811;-84
2022/10/02 14:21:37;;;;;;;1.40;1.30;;;13.50;99.90;;;;;;6238258;22;20351;-83
2022/10/02 14:24:21;;;;;;;2.07;1.73;;;13.70;99.90;;;;;;6239306;22;20716;-84
2022/10/02 14:26:47;;;;;;;1.30;1.20;;;;;;;;;;6240431;22;21056;-83